Aérodrome :
LOGIN :

S'inscrire | Disclaimer

   EN    FR    IT 

 










Légende :    VFR   VFR Marginal   IFR   IFR Intensif   IFR Très Intensif
Visi : 
Plafond : 
>= 8 km
>= 3000ft
5 à 8 km
1000 à 3000 ft
1500m à 5 km
500 à 1000 ft
800 à 1500m
200 à 500 ft
< 800m
< 200 ft
Symboles :   Orages  Brouillard  Fortes neiges  Fortes précipitations  Vent > 20 kt
SIGMETs :   Divers  Orages  Givrage  Turbulence  Onde Orograph.  Cendres Volcan.







- Altitude de l'aérodrome : 446 ft
- Code IATA : VNE
- Voir les cartes d'approche


LFRV - Vannes-Meucon

DERNIER METAR :
  • 250030Z AUTO VRB03KT 1500 1100 BR VV/// ///TCU 15/15 Q1018

METARs EXPIRÉS :
  • 250000Z AUTO 20004KT 170V230 4600 RA BR OVC002/// ///TCU 15/15 Q1018
  • 242330Z AUTO 22005KT 170V260 6000 -RA OVC002 15/15 Q1018
  • 242300Z AUTO 22006KT 190V260 4600 +RA BR VV/// ///TCU 15/15 Q1018
  • 242230Z AUTO 22005KT 190V270 4100 -RADZ BR VV/// ///TCU 15/15 Q1018
  • 242200Z AUTO 21005KT 160V250 5000 -RA BR OVC002/// ///TCU 16/16 Q1018

TAF N/A
Pas de NOTAMs connus pour ce terrain.



MET'MAP, la Météo Aéronautique d'un coup d'oeil ! - Copyright ORBIFLY Décembre 2007 - Disclaimer

ORBIFLY MET'MAP TEAM :

Programmation & Développement : Alexandra Zaïnal
Conception & Développement : Baudouin d'Aumeries
Co-Programmation & Développement : Marc-Olivier Méhu
Soutien technique & logistique : Manuel Goepfert

Contact : metmap@orbifly.com




SOURCES & CREDITS :

   NOAA